createdAt,value
2023-03-26T00:01:50.968Z,68.87
2023-03-26T00:04:42.747Z,68.64
2023-03-26T00:07:33.578Z,68.80
2023-03-26T00:10:25.449Z,68.77
2023-03-26T00:13:16.101Z,68.71
2023-03-26T00:16:08.853Z,68.82
2023-03-26T00:18:59.984Z,68.84
2023-03-26T00:21:51.768Z,68.71
2023-03-26T00:24:45.989Z,68.70
2023-03-26T00:27:37.035Z,68.46
2023-03-26T00:30:27.725Z,68.46
2023-03-26T00:33:18.546Z,68.53
2023-03-26T00:36:11.256Z,68.46
2023-03-26T00:39:05.259Z,68.40
2023-03-26T00:41:55.862Z,68.32
2023-03-26T00:44:46.615Z,68.46
2023-03-26T00:47:37.235Z,68.59
2023-03-26T00:50:27.902Z,68.33
2023-03-26T00:53:20.120Z,68.34
2023-03-26T00:56:11.606Z,68.55
2023-03-26T00:59:01.966Z,68.62
2023-03-26T01:01:57.194Z,68.65
2023-03-26T01:04:49.428Z,68.77
2023-03-26T01:07:40.013Z,68.59
2023-03-26T01:10:38.750Z,68.58
2023-03-26T01:13:29.978Z,68.57
2023-03-26T01:16:27.492Z,68.55
2023-03-26T01:19:34.494Z,68.50
2023-03-26T01:22:26.422Z,68.51
2023-03-26T01:25:17.145Z,68.57
2023-03-26T01:28:08.859Z,68.44
2023-03-26T01:31:01.429Z,68.18
2023-03-26T01:33:55.845Z,68.38
2023-03-26T01:36:49.186Z,68.28
2023-03-26T01:39:41.717Z,68.30
2023-03-26T01:42:37.053Z,68.23
2023-03-26T01:45:29.362Z,68.52
2023-03-26T01:48:21.119Z,68.20
2023-03-26T01:51:11.865Z,68.29
2023-03-26T01:54:02.466Z,68.39
2023-03-26T01:57:00.011Z,68.15
2023-03-26T01:59:58.991Z,68.34
2023-03-26T02:03:06.175Z,68.24
2023-03-26T02:05:58.978Z,68.32
2023-03-26T02:08:52.357Z,68.08
2023-03-26T02:11:43.081Z,68.33
2023-03-26T02:14:34.367Z,68.23
2023-03-26T02:17:25.330Z,68.24
2023-03-26T02:20:16.487Z,68.17
2023-03-26T02:23:09.199Z,68.43
2023-03-26T02:26:00.642Z,68.48
2023-03-26T02:28:51.601Z,68.37
2023-03-26T02:31:43.574Z,68.37
2023-03-26T02:34:34.226Z,68.32
2023-03-26T02:37:24.933Z,68.43
2023-03-26T02:40:21.293Z,68.38
2023-03-26T02:43:12.151Z,68.57
2023-03-26T02:46:03.794Z,68.74
2023-03-26T02:49:12.609Z,68.67
2023-03-26T02:52:06.726Z,68.82
2023-03-26T02:54:58.777Z,68.64
2023-03-26T02:57:50.650Z,68.72
2023-03-26T03:00:47.366Z,68.74
2023-03-26T03:03:49.528Z,68.60
2023-03-26T03:06:57.598Z,68.54
2023-03-26T03:09:50.815Z,68.57
2023-03-26T03:13:06.013Z,68.51
2023-03-26T03:15:56.504Z,68.62
2023-03-26T03:18:47.604Z,68.57
2023-03-26T03:21:38.605Z,68.48
2023-03-26T03:24:29.999Z,68.49
2023-03-26T03:27:23.000Z,68.35
2023-03-26T03:30:21.070Z,68.50
2023-03-26T03:33:33.137Z,68.62
2023-03-26T03:36:24.342Z,68.79
2023-03-26T03:39:22.436Z,68.62
2023-03-26T03:42:13.232Z,68.54
2023-03-26T03:45:04.214Z,68.70
2023-03-26T03:48:30.636Z,68.76
2023-03-26T03:51:21.665Z,68.79
2023-03-26T03:54:15.012Z,68.77
2023-03-26T03:57:08.459Z,68.97
2023-03-26T04:00:20.067Z,68.86
2023-03-26T04:03:15.104Z,68.70
2023-03-26T04:06:07.918Z,68.73
2023-03-26T04:08:58.744Z,68.61
2023-03-26T04:11:50.843Z,68.70
2023-03-26T04:15:03.230Z,68.62
2023-03-26T04:17:54.837Z,68.45
2023-03-26T04:20:46.886Z,68.70
2023-03-26T04:23:43.368Z,68.88
2023-03-26T04:26:43.041Z,68.97
2023-03-26T04:29:44.238Z,68.97
2023-03-26T04:32:41.411Z,69.19
2023-03-26T04:35:34.494Z,69.54
2023-03-26T04:38:26.402Z,69.50
2023-03-26T04:41:17.358Z,69.83
2023-03-26T04:44:08.351Z,70.22
2023-03-26T04:47:19.233Z,70.36
2023-03-26T04:50:11.963Z,70.45
2023-03-26T04:53:05.653Z,70.46
2023-03-26T04:56:21.229Z,70.74
2023-03-26T04:59:35.391Z,70.61
2023-03-26T05:02:28.942Z,70.45
2023-03-26T05:05:19.592Z,70.79
2023-03-26T05:08:10.943Z,70.90
2023-03-26T05:11:02.619Z,70.85
2023-03-26T05:13:58.299Z,71.03
2023-03-26T05:16:50.434Z,70.94
2023-03-26T05:19:41.436Z,70.91
2023-03-26T05:22:32.230Z,71.04
2023-03-26T05:25:47.261Z,71.09
2023-03-26T05:28:43.780Z,71.05
2023-03-26T05:31:45.245Z,70.92
2023-03-26T05:34:36.086Z,70.69
2023-03-26T05:37:27.211Z,70.73
2023-03-26T05:40:25.351Z,70.65
2023-03-26T05:43:19.695Z,70.51
2023-03-26T05:46:20.455Z,70.27
2023-03-26T05:49:11.417Z,70.04
2023-03-26T05:52:02.154Z,69.90
2023-03-26T05:55:13.420Z,69.65
2023-03-26T05:58:24.159Z,69.54
2023-03-26T06:01:33.641Z,69.48
2023-03-26T06:04:42.749Z,68.95
2023-03-26T06:07:52.309Z,68.93
2023-03-26T06:10:44.955Z,68.72
2023-03-26T06:13:35.417Z,68.89
2023-03-26T06:16:27.725Z,68.72
2023-03-26T06:19:26.428Z,68.77
2023-03-26T06:22:39.282Z,68.64
2023-03-26T06:26:09.037Z,66.97
2023-03-26T06:29:31.823Z,65.16
2023-03-26T06:32:41.498Z,63.07
2023-03-26T06:35:36.858Z,61.62
2023-03-26T06:38:31.896Z,60.40
2023-03-26T06:41:24.933Z,59.11
2023-03-26T06:44:38.478Z,59.47
2023-03-26T06:47:47.988Z,59.02
2023-03-26T06:50:57.501Z,59.17
2023-03-26T06:54:11.182Z,59.14
2023-03-26T06:57:17.208Z,59.66
2023-03-26T07:00:09.770Z,59.67
2023-03-26T07:03:19.551Z,60.04
2023-03-26T07:06:29.073Z,60.22
2023-03-26T07:09:36.904Z,60.41
2023-03-26T07:12:49.935Z,61.03
2023-03-26T07:15:59.873Z,61.26
2023-03-26T07:19:02.007Z,61.51
2023-03-26T07:21:59.638Z,61.63
2023-03-26T07:25:30.168Z,61.73
2023-03-26T07:29:03.984Z,62.14
2023-03-26T07:32:22.945Z,62.09
2023-03-26T07:35:20.574Z,62.73
2023-03-26T07:38:38.619Z,63.09
2023-03-26T07:41:55.430Z,63.34
2023-03-26T07:45:09.938Z,63.71
2023-03-26T07:48:21.175Z,63.91
2023-03-26T07:51:41.463Z,63.62
2023-03-26T07:55:03.643Z,63.75
2023-03-26T07:58:21.202Z,63.76
2023-03-26T08:01:42.497Z,63.99
2023-03-26T08:04:45.684Z,64.11
2023-03-26T08:07:59.447Z,63.91
2023-03-26T08:11:04.691Z,63.74
2023-03-26T08:14:04.472Z,64.23
2023-03-26T08:16:57.090Z,64.39
2023-03-26T08:20:05.919Z,64.34
2023-03-26T08:22:58.657Z,64.57
2023-03-26T08:25:54.615Z,64.54
2023-03-26T08:28:58.814Z,64.67
2023-03-26T08:31:49.972Z,64.71
2023-03-26T08:34:40.931Z,65.02
2023-03-26T08:37:31.841Z,65.13
2023-03-26T08:40:32.698Z,65.08
2023-03-26T08:43:36.327Z,65.11
2023-03-26T08:46:43.550Z,65.14
2023-03-26T08:50:03.879Z,65.18
2023-03-26T08:53:16.100Z,65.53
2023-03-26T08:56:19.896Z,65.82
2023-03-26T08:59:33.668Z,66.00
2023-03-26T09:02:39.442Z,66.45
2023-03-26T09:05:49.119Z,66.30
2023-03-26T09:09:06.621Z,66.27
2023-03-26T09:12:45.650Z,66.33
2023-03-26T09:16:09.354Z,64.62
2023-03-26T09:19:23.654Z,62.71
2023-03-26T09:22:41.656Z,61.62
2023-03-26T09:25:54.785Z,60.99
2023-03-26T09:29:29.048Z,60.19
2023-03-26T09:32:53.174Z,60.23
2023-03-26T09:35:53.903Z,60.13
2023-03-26T09:38:46.744Z,60.07
2023-03-26T09:41:44.812Z,59.64
2023-03-26T09:45:03.913Z,59.08
2023-03-26T09:48:27.830Z,57.58
2023-03-26T09:51:29.948Z,56.39
2023-03-26T09:55:09.462Z,55.68
2023-03-26T09:58:12.551Z,54.73
2023-03-26T10:01:07.182Z,53.50
2023-03-26T10:04:02.740Z,52.00
2023-03-26T10:06:55.634Z,50.74
2023-03-26T10:09:52.191Z,50.09
2023-03-26T10:12:44.145Z,49.66
2023-03-26T10:15:37.347Z,49.11
2023-03-26T10:18:32.976Z,48.47
2023-03-26T10:21:28.678Z,48.02
2023-03-26T10:24:33.425Z,47.04
2023-03-26T10:27:36.142Z,46.13
2023-03-26T10:30:41.809Z,46.02
2023-03-26T10:33:38.692Z,45.89
2023-03-26T10:36:32.104Z,46.18
2023-03-26T10:39:43.657Z,46.99
2023-03-26T10:42:55.973Z,47.13
2023-03-26T10:46:14.968Z,47.51
2023-03-26T10:49:18.254Z,47.63
2023-03-26T10:52:09.178Z,47.48
2023-03-26T10:55:01.938Z,47.48
2023-03-26T10:57:56.479Z,47.96
2023-03-26T11:00:48.354Z,48.65
2023-03-26T11:03:52.031Z,48.73
2023-03-26T11:06:46.548Z,48.76
2023-03-26T11:09:41.110Z,49.06
2023-03-26T11:12:35.865Z,49.75
2023-03-26T11:15:28.095Z,50.05
2023-03-26T11:18:20.361Z,50.59
2023-03-26T11:21:18.840Z,50.13
2023-03-26T11:24:36.270Z,49.57
2023-03-26T11:27:32.604Z,48.52
2023-03-26T11:30:30.960Z,47.82
2023-03-26T11:33:23.868Z,47.17
2023-03-26T11:36:16.386Z,47.27
2023-03-26T11:39:11.225Z,47.49
2023-03-26T11:42:06.455Z,47.92
2023-03-26T11:45:05.828Z,47.94
2023-03-26T11:47:59.976Z,48.17
2023-03-26T11:50:53.019Z,48.45
2023-03-26T11:53:47.864Z,48.95
2023-03-26T11:56:42.197Z,49.93
2023-03-26T11:59:57.683Z,50.40
2023-03-26T12:02:49.044Z,50.22
2023-03-26T12:05:39.711Z,50.31
2023-03-26T12:08:35.840Z,50.01
2023-03-26T12:11:35.480Z,50.12
2023-03-26T12:14:27.392Z,49.73
2023-03-26T12:17:31.399Z,49.65
2023-03-26T12:20:38.829Z,49.51
2023-03-26T12:23:42.590Z,49.50
2023-03-26T12:26:37.787Z,48.95
2023-03-26T12:29:28.629Z,49.06
2023-03-26T12:32:19.371Z,48.86
2023-03-26T12:35:18.727Z,49.08
2023-03-26T12:38:23.084Z,49.89
2023-03-26T12:44:45.934Z,51.36
2023-03-26T12:44:55.266Z,53.10
2023-03-26T12:48:00.847Z,54.06
2023-03-26T12:51:02.906Z,55.24
2023-03-26T12:54:04.288Z,55.79
2023-03-26T12:57:12.388Z,56.32
2023-03-26T13:00:14.475Z,56.59
2023-03-26T13:03:21.137Z,56.84
2023-03-26T13:06:21.791Z,57.28
2023-03-26T13:09:19.745Z,57.76
2023-03-26T13:12:20.394Z,58.17
2023-03-26T13:15:15.897Z,58.39
2023-03-26T13:18:14.705Z,58.47
2023-03-26T13:21:08.055Z,58.82
2023-03-26T13:24:03.547Z,58.92
2023-03-26T13:27:00.739Z,59.16
2023-03-26T13:29:56.848Z,59.33
2023-03-26T13:32:57.525Z,59.29
2023-03-26T13:35:51.270Z,59.49
2023-03-26T13:38:58.820Z,59.74
2023-03-26T13:42:01.040Z,59.74
2023-03-26T13:45:04.867Z,59.52
2023-03-26T13:47:57.347Z,59.02
2023-03-26T13:50:52.489Z,59.50
2023-03-26T13:53:44.821Z,58.98
2023-03-26T13:56:36.862Z,58.68
2023-03-26T13:59:32.139Z,58.30
2023-03-26T14:02:27.906Z,58.46
2023-03-26T14:05:21.878Z,58.34
2023-03-26T14:08:16.346Z,58.50
2023-03-26T14:11:11.094Z,58.61
2023-03-26T14:14:04.074Z,58.55
2023-03-26T14:16:58.064Z,58.55
2023-03-26T14:20:24.784Z,58.42
2023-03-26T14:23:23.309Z,58.25
2023-03-26T14:26:19.787Z,58.18
2023-03-26T14:29:31.289Z,58.10
2023-03-26T14:32:29.854Z,58.04
2023-03-26T14:35:28.655Z,58.24
2023-03-26T14:38:41.846Z,57.93
2023-03-26T14:41:37.314Z,58.23
2023-03-26T14:44:47.592Z,58.32
2023-03-26T14:47:43.127Z,58.16
2023-03-26T14:50:49.126Z,58.26
2023-03-26T14:53:44.711Z,58.08
2023-03-26T14:57:33.756Z,58.13
2023-03-26T15:01:04.482Z,58.02
2023-03-26T15:04:38.437Z,58.04
2023-03-26T15:07:46.003Z,58.13
2023-03-26T15:11:00.105Z,58.05
2023-03-26T15:14:02.187Z,57.83
2023-03-26T15:17:20.606Z,57.54
2023-03-26T15:20:34.739Z,57.19
2023-03-26T15:24:00.600Z,56.95
2023-03-26T15:27:21.391Z,56.96
2023-03-26T15:30:45.185Z,56.61
2023-03-26T15:34:08.320Z,56.21
2023-03-26T15:37:30.531Z,56.40
2023-03-26T15:40:38.152Z,56.38
2023-03-26T15:43:29.412Z,56.49
2023-03-26T15:46:32.858Z,56.42
2023-03-26T15:49:26.168Z,56.69
2023-03-26T15:52:22.245Z,56.75
2023-03-26T15:55:27.890Z,57.08
2023-03-26T15:58:23.094Z,57.19
2023-03-26T16:01:19.959Z,57.25
2023-03-26T16:04:17.381Z,57.03
2023-03-26T16:07:09.741Z,57.21
2023-03-26T16:10:04.658Z,57.33
2023-03-26T16:13:19.089Z,57.32
2023-03-26T16:16:28.313Z,57.31
2023-03-26T16:19:51.953Z,57.45
2023-03-26T16:22:46.513Z,57.16
2023-03-26T16:25:38.469Z,57.16
2023-03-26T16:28:32.624Z,57.07
2023-03-26T16:31:37.258Z,56.90
2023-03-26T16:34:31.542Z,56.65
2023-03-26T16:37:45.985Z,56.64
2023-03-26T16:40:38.408Z,56.77
2023-03-26T16:43:51.164Z,56.72
2023-03-26T16:46:48.989Z,57.01
2023-03-26T16:49:47.273Z,57.16
2023-03-26T16:53:02.164Z,57.11
2023-03-26T16:55:56.638Z,57.42
2023-03-26T16:58:55.022Z,57.35
2023-03-26T17:01:49.851Z,57.37
2023-03-26T17:04:41.286Z,57.50
2023-03-26T17:07:36.439Z,57.53
2023-03-26T17:10:32.296Z,57.59
2023-03-26T17:13:26.099Z,57.68
2023-03-26T17:16:19.915Z,57.69
2023-03-26T17:19:17.769Z,57.81
2023-03-26T17:22:11.494Z,57.80
2023-03-26T17:25:04.669Z,57.98
2023-03-26T17:28:23.870Z,58.15
2023-03-26T17:31:21.172Z,58.29
2023-03-26T17:34:46.743Z,58.46
2023-03-26T17:37:48.263Z,58.50
2023-03-26T17:40:53.160Z,58.78
2023-03-26T17:43:46.456Z,58.73
2023-03-26T17:46:38.798Z,58.96
2023-03-26T17:49:31.267Z,58.99
2023-03-26T17:52:25.311Z,59.11
2023-03-26T17:55:18.557Z,59.35
2023-03-26T17:58:20.703Z,59.39
2023-03-26T18:01:18.478Z,59.46
2023-03-26T18:04:12.612Z,59.67
2023-03-26T18:07:19.160Z,59.76
2023-03-26T18:10:19.682Z,59.79
2023-03-26T18:13:27.141Z,59.97
2023-03-26T18:16:17.988Z,60.15
2023-03-26T18:19:18.353Z,60.22
2023-03-26T18:22:13.759Z,60.36
2023-03-26T18:25:05.369Z,60.49
2023-03-26T18:27:56.000Z,60.66
2023-03-26T18:30:49.165Z,60.76
2023-03-26T18:33:46.592Z,60.80
2023-03-26T18:36:38.596Z,60.92
2023-03-26T18:39:29.018Z,61.03
2023-03-26T18:42:23.313Z,61.14
2023-03-26T18:45:22.041Z,61.37
2023-03-26T18:48:17.849Z,61.46
2023-03-26T18:51:08.807Z,61.79
2023-03-26T18:54:00.251Z,62.01
2023-03-26T18:56:52.330Z,62.09
2023-03-26T18:59:45.237Z,62.14
2023-03-26T19:02:35.957Z,62.17
2023-03-26T19:05:28.449Z,62.23
2023-03-26T19:08:19.217Z,62.34
2023-03-26T19:11:09.939Z,62.49
2023-03-26T19:14:08.424Z,62.63
2023-03-26T19:17:00.932Z,62.73
2023-03-26T19:19:52.898Z,62.83
2023-03-26T19:22:44.747Z,62.86
2023-03-26T19:25:38.845Z,62.92
2023-03-26T19:28:31.116Z,62.88
2023-03-26T19:31:26.066Z,63.02
2023-03-26T19:34:27.379Z,63.20
2023-03-26T19:37:22.857Z,63.22
2023-03-26T19:40:29.971Z,63.30
2023-03-26T19:43:20.823Z,63.37
2023-03-26T19:46:16.615Z,63.47
2023-03-26T19:49:08.062Z,63.47
2023-03-26T19:52:11.949Z,63.65
2023-03-26T19:55:13.744Z,63.49
2023-03-26T19:58:06.040Z,63.88
2023-03-26T20:00:57.282Z,63.96
2023-03-26T20:03:49.179Z,63.91
2023-03-26T20:06:43.613Z,64.27
2023-03-26T20:09:36.506Z,64.11
2023-03-26T20:12:27.217Z,64.21
2023-03-26T20:15:21.590Z,64.16
2023-03-26T20:18:14.133Z,64.33
2023-03-26T20:21:06.732Z,64.50
2023-03-26T20:23:57.489Z,64.50
2023-03-26T20:26:48.459Z,64.48
2023-03-26T20:29:39.267Z,64.55
2023-03-26T20:32:30.506Z,64.70
2023-03-26T20:35:35.563Z,65.07
2023-03-26T20:38:39.063Z,65.07
2023-03-26T20:41:30.708Z,65.36
2023-03-26T20:44:22.574Z,65.29
2023-03-26T20:47:14.401Z,65.69
2023-03-26T20:50:05.056Z,65.97
2023-03-26T20:52:55.986Z,65.92
2023-03-26T20:55:47.958Z,65.77
2023-03-26T20:58:40.177Z,65.80
2023-03-26T21:01:31.461Z,66.13
2023-03-26T21:04:22.448Z,66.10
2023-03-26T21:07:18.228Z,66.29
2023-03-26T21:10:19.408Z,65.93
2023-03-26T21:13:12.543Z,65.75
2023-03-26T21:16:03.838Z,66.01
2023-03-26T21:18:55.742Z,66.18
2023-03-26T21:21:51.300Z,66.24
2023-03-26T21:24:51.615Z,65.99
2023-03-26T21:27:45.963Z,66.13
2023-03-26T21:30:37.510Z,66.33
2023-03-26T21:33:28.537Z,66.44
2023-03-26T21:36:20.448Z,66.49
2023-03-26T21:39:12.649Z,66.61
2023-03-26T21:42:05.928Z,66.65
2023-03-26T21:44:57.785Z,66.74
2023-03-26T21:47:49.294Z,66.59
2023-03-26T21:50:41.087Z,66.65
2023-03-26T21:53:32.461Z,66.94
2023-03-26T21:56:28.874Z,66.76
2023-03-26T21:59:22.374Z,66.77
2023-03-26T22:02:17.479Z,66.76
2023-03-26T22:05:12.585Z,66.54
2023-03-26T22:08:04.218Z,66.68
2023-03-26T22:10:55.424Z,66.64
2023-03-26T22:13:46.955Z,66.46
2023-03-26T22:16:37.509Z,66.55
2023-03-26T22:19:30.149Z,66.69
2023-03-26T22:22:22.196Z,66.52
2023-03-26T22:25:14.883Z,66.68
2023-03-26T22:28:05.503Z,66.37
2023-03-26T22:30:56.250Z,66.44
2023-03-26T22:33:47.355Z,66.86
2023-03-26T22:36:40.234Z,66.81
2023-03-26T22:39:31.370Z,66.95
2023-03-26T22:42:21.915Z,66.98
2023-03-26T22:45:13.538Z,67.11
2023-03-26T22:48:04.759Z,67.16
2023-03-26T22:51:02.795Z,67.25
2023-03-26T22:53:53.467Z,67.24
2023-03-26T22:56:45.863Z,67.17
2023-03-26T22:59:36.287Z,67.10
2023-03-26T23:02:27.264Z,67.20
2023-03-26T23:05:18.760Z,67.02
2023-03-26T23:08:09.648Z,67.10
2023-03-26T23:11:00.510Z,67.18
2023-03-26T23:13:51.340Z,67.20
2023-03-26T23:16:42.467Z,67.30
2023-03-26T23:19:35.052Z,67.25
2023-03-26T23:22:25.785Z,67.15
2023-03-26T23:25:16.462Z,67.26
2023-03-26T23:28:07.484Z,67.19
2023-03-26T23:30:58.591Z,67.27
2023-03-26T23:33:50.570Z,67.32
2023-03-26T23:36:41.907Z,67.29
2023-03-26T23:39:33.691Z,67.07
2023-03-26T23:42:28.271Z,67.38
2023-03-26T23:45:20.641Z,67.26
2023-03-26T23:48:10.985Z,67.41
2023-03-26T23:51:03.147Z,67.52
2023-03-26T23:53:54.997Z,67.70
2023-03-26T23:56:46.047Z,67.76
2023-03-26T23:59:36.525Z,67.73
